createdAt,value
2023-02-22T00:01:51.261Z,4.97
2023-02-22T00:04:21.670Z,4.45
2023-02-22T00:06:51.681Z,4.60
2023-02-22T00:09:22.162Z,4.20
2023-02-22T00:11:52.221Z,5.10
2023-02-22T00:14:22.199Z,4.07
2023-02-22T00:16:52.235Z,4.25
2023-02-22T00:19:22.323Z,4.72
2023-02-22T00:21:53.555Z,4.35
2023-02-22T00:24:24.870Z,5.07
2023-02-22T00:26:56.409Z,4.15
2023-02-22T00:29:26.818Z,4.78
2023-02-22T00:31:56.880Z,4.15
2023-02-22T00:34:26.915Z,4.30
2023-02-22T00:36:56.982Z,3.83
2023-02-22T00:39:27.017Z,4.47
2023-02-22T00:41:57.959Z,4.05
2023-02-22T00:44:28.016Z,4.22
2023-02-22T00:46:58.027Z,5.43
2023-02-22T00:49:28.126Z,5.38
2023-02-22T00:51:58.170Z,3.88
2023-02-22T00:54:28.176Z,4.22
2023-02-22T00:56:58.287Z,3.75
2023-02-22T00:59:28.313Z,3.97
2023-02-22T01:01:58.649Z,3.35
2023-02-22T01:04:28.970Z,4.40
2023-02-22T01:07:00.647Z,4.00
2023-02-22T01:09:30.929Z,3.90
2023-02-22T01:12:02.430Z,3.50
2023-02-22T01:14:32.545Z,3.67
2023-02-22T01:17:02.568Z,5.72
2023-02-22T01:19:32.593Z,4.15
2023-02-22T01:22:02.678Z,4.45
2023-02-22T01:24:32.738Z,4.07
2023-02-22T01:27:02.732Z,3.55
2023-02-22T01:29:32.776Z,4.07
2023-02-22T01:32:03.364Z,3.42
2023-02-22T01:34:33.787Z,4.05
2023-02-22T01:37:04.284Z,3.72
2023-02-22T01:39:34.406Z,3.20
2023-02-22T01:42:04.619Z,3.58
2023-02-22T01:44:38.211Z,3.15
2023-02-22T01:47:11.557Z,3.85
2023-02-22T01:49:52.197Z,3.33
2023-02-22T01:52:22.859Z,3.90
2023-02-22T01:55:00.292Z,3.17
2023-02-22T01:57:37.812Z,4.47
2023-02-22T02:00:17.000Z,3.95
2023-02-22T02:03:07.065Z,4.38
2023-02-22T02:05:39.231Z,4.03
2023-02-22T02:08:51.605Z,4.13
2023-02-22T02:11:26.876Z,3.80
2023-02-22T02:13:58.921Z,4.18
2023-02-22T02:16:46.951Z,3.13
2023-02-22T02:20:08.310Z,3.55
2023-02-22T02:26:54.302Z,4.30
2023-02-22T02:30:09.061Z,3.92
2023-02-22T02:33:17.201Z,4.50
2023-02-22T02:36:44.661Z,4.10
2023-02-22T02:39:43.673Z,3.63
2023-02-22T02:42:25.740Z,6.17
2023-02-22T02:45:17.730Z,3.97
2023-02-22T02:47:59.243Z,4.55
2023-02-22T02:50:47.220Z,4.60
2023-02-22T02:53:30.632Z,4.03
2023-02-22T02:56:01.023Z,4.47
2023-02-22T02:58:31.740Z,3.67
2023-02-22T03:01:06.953Z,5.35
2023-02-22T03:04:25.199Z,4.82
2023-02-22T03:07:10.195Z,4.45
2023-02-22T03:10:26.599Z,4.38
2023-02-22T03:14:08.915Z,4.50
2023-02-22T03:16:54.931Z,4.57
2023-02-22T03:19:40.534Z,4.10
2023-02-22T03:22:24.914Z,3.75
2023-02-22T03:25:50.702Z,5.28
2023-02-22T03:28:28.006Z,4.63
2023-02-22T03:31:20.271Z,4.53
2023-02-22T03:34:16.040Z,3.47
2023-02-22T03:36:59.162Z,4.05
2023-02-22T03:39:32.393Z,3.92
2023-02-22T03:42:18.768Z,4.10
2023-02-22T03:44:58.126Z,3.75
2023-02-22T03:47:42.659Z,4.20
2023-02-22T03:50:26.851Z,3.08
2023-02-22T03:53:01.102Z,4.25
2023-02-22T03:55:31.570Z,3.58
2023-02-22T03:58:12.055Z,4.90
2023-02-22T04:00:44.664Z,4.03
2023-02-22T04:03:13.598Z,3.85
2023-02-22T04:05:42.357Z,4.88
2023-02-22T04:08:10.390Z,5.03
2023-02-22T04:10:38.797Z,4.63
2023-02-22T04:13:07.211Z,5.32
2023-02-22T04:15:35.918Z,4.10
2023-02-22T04:18:04.590Z,4.78
2023-02-22T04:20:32.670Z,4.88
2023-02-22T04:23:01.344Z,4.35
2023-02-22T04:25:29.512Z,6.35
2023-02-22T04:27:58.230Z,4.63
2023-02-22T04:30:26.132Z,4.60
2023-02-22T04:32:54.488Z,4.55
2023-02-22T04:35:24.201Z,5.07
2023-02-22T04:37:51.313Z,5.60
2023-02-22T04:40:20.303Z,3.78
2023-02-22T04:42:48.195Z,6.75
2023-02-22T04:45:16.575Z,4.68
2023-02-22T04:47:45.031Z,4.10
2023-02-22T04:50:14.382Z,5.00
2023-02-22T04:52:41.860Z,5.90
2023-02-22T04:55:10.462Z,5.15
2023-02-22T04:57:38.670Z,4.97
2023-02-22T05:00:10.388Z,4.82
2023-02-22T05:02:41.002Z,4.80
2023-02-22T05:05:11.247Z,4.53
2023-02-22T05:07:41.344Z,5.90
2023-02-22T05:10:13.923Z,5.82
2023-02-22T05:12:44.047Z,4.70
2023-02-22T05:15:22.273Z,5.13
2023-02-22T05:17:53.732Z,5.63
2023-02-22T05:20:30.948Z,5.78
2023-02-22T05:23:03.665Z,4.80
2023-02-22T05:25:33.903Z,4.88
2023-02-22T05:28:13.780Z,6.43
2023-02-22T05:30:43.990Z,5.15
2023-02-22T05:33:14.118Z,5.45
2023-02-22T05:35:44.649Z,4.95
2023-02-22T05:38:15.819Z,5.30
2023-02-22T05:40:45.872Z,5.43
2023-02-22T05:43:16.307Z,5.95
2023-02-22T05:45:46.503Z,6.55
2023-02-22T05:48:16.801Z,7.03
2023-02-22T05:50:47.293Z,5.93
2023-02-22T05:53:17.485Z,5.30
2023-02-22T05:55:47.475Z,5.20
2023-02-22T05:58:17.904Z,4.75
2023-02-22T06:00:48.209Z,4.90
2023-02-22T06:03:18.262Z,5.65
2023-02-22T06:05:48.634Z,6.13
2023-02-22T06:08:18.785Z,4.88
2023-02-22T06:10:48.800Z,5.65
2023-02-22T06:13:18.799Z,5.68
2023-02-22T06:15:48.900Z,5.68
2023-02-22T06:18:18.904Z,7.78
2023-02-22T06:20:48.912Z,6.07
2023-02-22T06:23:19.061Z,7.25
2023-02-22T06:25:49.246Z,6.88
2023-02-22T06:28:19.394Z,6.57
2023-02-22T06:30:49.433Z,6.22
2023-02-22T06:33:19.527Z,6.78
2023-02-22T06:35:49.573Z,7.38
2023-02-22T06:38:26.288Z,5.97
2023-02-22T06:40:56.500Z,7.10
2023-02-22T06:43:26.609Z,6.80
2023-02-22T06:45:56.634Z,6.50
2023-02-22T06:48:26.682Z,7.97
2023-02-22T06:50:56.828Z,7.07
2023-02-22T06:53:26.875Z,6.85
2023-02-22T06:55:56.966Z,7.13
2023-02-22T06:58:27.246Z,6.93
2023-02-22T07:00:57.360Z,6.70
2023-02-22T07:03:27.510Z,6.57
2023-02-22T07:05:57.595Z,7.15
2023-02-22T07:08:27.799Z,7.03
2023-02-22T07:10:57.939Z,7.07
2023-02-22T07:13:27.982Z,7.15
2023-02-22T07:15:56.413Z,7.80
2023-02-22T07:18:24.759Z,7.68
2023-02-22T07:20:53.457Z,8.40
2023-02-22T07:23:21.798Z,11.98
2023-02-22T07:25:50.530Z,12.23
2023-02-22T07:28:18.562Z,11.70
2023-02-22T07:30:46.922Z,10.00
2023-02-22T07:33:15.249Z,11.55
2023-02-22T07:35:51.081Z,10.85
2023-02-22T07:38:21.453Z,9.52
2023-02-22T07:40:51.479Z,11.73
2023-02-22T07:43:28.549Z,8.73
2023-02-22T07:46:02.997Z,8.68
2023-02-22T07:48:33.068Z,7.45
2023-02-22T07:51:03.388Z,7.70
2023-02-22T07:53:34.428Z,7.88
2023-02-22T07:56:08.882Z,7.10
2023-02-22T07:58:38.931Z,6.65
2023-02-22T08:01:07.367Z,6.70
2023-02-22T08:03:37.918Z,6.53
2023-02-22T08:06:08.738Z,7.28
2023-02-22T08:08:38.990Z,5.95
2023-02-22T08:11:09.241Z,6.15
2023-02-22T08:13:39.962Z,6.47
2023-02-22T08:16:09.994Z,6.05
2023-02-22T08:18:41.148Z,6.15
2023-02-22T08:21:11.259Z,6.90
2023-02-22T08:23:41.249Z,5.70
2023-02-22T08:26:17.823Z,6.93
2023-02-22T08:28:49.405Z,6.68
2023-02-22T08:31:19.837Z,6.32
2023-02-22T08:33:50.123Z,7.13
2023-02-22T08:36:20.184Z,6.57
2023-02-22T08:38:50.028Z,6.00
2023-02-22T08:41:19.918Z,6.20
2023-02-22T08:43:49.933Z,6.45
2023-02-22T08:46:19.710Z,6.75
2023-02-22T08:48:53.897Z,6.97
2023-02-22T08:51:27.668Z,6.18
2023-02-22T08:53:55.573Z,6.47
2023-02-22T08:56:25.491Z,5.93
2023-02-22T08:58:56.009Z,5.35
2023-02-22T09:01:32.850Z,7.07
2023-02-22T09:04:03.258Z,5.75
2023-02-22T09:06:33.708Z,4.80
2023-02-22T09:09:03.818Z,6.47
2023-02-22T09:11:34.139Z,6.38
2023-02-22T09:14:03.679Z,6.03
2023-02-22T09:16:33.637Z,6.55
2023-02-22T09:19:04.184Z,7.13
2023-02-22T09:21:33.872Z,7.30
2023-02-22T09:24:08.500Z,5.32
2023-02-22T09:26:39.455Z,6.38
2023-02-22T09:29:10.586Z,6.82
2023-02-22T09:31:41.973Z,7.03
2023-02-22T09:34:15.786Z,7.32
2023-02-22T09:36:49.864Z,5.68
2023-02-22T09:39:19.338Z,5.35
2023-02-22T09:42:02.697Z,5.80
2023-02-22T09:45:01.184Z,5.40
2023-02-22T09:47:45.107Z,4.57
2023-02-22T09:50:35.699Z,5.18
2023-02-22T09:53:41.946Z,4.93
2023-02-22T09:56:20.141Z,4.90
2023-02-22T09:59:00.423Z,5.32
2023-02-22T10:01:46.367Z,4.88
2023-02-22T10:04:41.369Z,5.60
2023-02-22T10:07:26.074Z,4.88
2023-02-22T10:10:06.366Z,4.30
2023-02-22T10:13:18.502Z,5.03
2023-02-22T10:16:01.884Z,4.25
2023-02-22T10:19:25.606Z,7.63
2023-02-22T10:22:34.996Z,4.85
2023-02-22T10:25:19.342Z,4.97
2023-02-22T10:28:27.062Z,5.03
2023-02-22T10:31:12.540Z,4.72
2023-02-22T10:33:57.677Z,4.15
2023-02-22T10:36:29.383Z,5.13
2023-02-22T10:39:28.992Z,4.15
2023-02-22T10:42:08.066Z,5.25
2023-02-22T10:44:41.125Z,4.13
2023-02-22T10:47:17.932Z,4.03
2023-02-22T10:49:58.609Z,4.38
2023-02-22T10:52:34.552Z,4.78
2023-02-22T10:55:15.580Z,4.63
2023-02-22T10:57:52.690Z,4.13
2023-02-22T11:00:33.515Z,4.43
2023-02-22T11:03:21.869Z,3.40
2023-02-22T11:05:52.588Z,5.72
2023-02-22T11:08:33.039Z,4.53
2023-02-22T11:11:26.479Z,4.38
2023-02-22T11:13:59.630Z,4.85
2023-02-22T11:16:58.229Z,5.43
2023-02-22T11:19:33.172Z,4.55
2023-02-22T11:22:05.784Z,5.07
2023-02-22T11:24:59.318Z,4.35
2023-02-22T11:27:43.373Z,4.57
2023-02-22T11:30:25.463Z,4.68
2023-02-22T11:33:23.961Z,4.22
2023-02-22T11:36:08.758Z,3.78
2023-02-22T11:38:55.194Z,5.35
2023-02-22T11:41:34.192Z,4.53
2023-02-22T11:44:23.721Z,4.97
2023-02-22T11:47:06.953Z,4.20
2023-02-22T11:49:45.863Z,4.53
2023-02-22T11:52:45.315Z,4.40
2023-02-22T11:55:43.123Z,3.65
2023-02-22T11:58:43.911Z,4.03
2023-02-22T12:01:22.646Z,4.47
2023-02-22T12:04:36.432Z,3.72
2023-02-22T12:07:27.452Z,4.35
2023-02-22T12:10:05.552Z,4.22
2023-02-22T12:13:22.350Z,3.80
2023-02-22T12:16:33.794Z,4.07
2023-02-22T12:19:43.361Z,4.18
2023-02-22T12:22:33.541Z,3.53
2023-02-22T12:25:38.980Z,4.07
2023-02-22T12:29:05.198Z,4.65
2023-02-22T12:32:06.420Z,4.07
2023-02-22T12:35:25.431Z,4.13
2023-02-22T12:38:31.186Z,4.18
2023-02-22T12:41:20.842Z,4.22
2023-02-22T12:44:17.375Z,3.88
2023-02-22T12:46:55.006Z,3.75
2023-02-22T12:50:14.896Z,4.43
2023-02-22T12:53:21.212Z,4.90
2023-02-22T12:56:03.311Z,3.67
2023-02-22T12:59:00.176Z,4.07
2023-02-22T13:01:42.244Z,3.65
2023-02-22T13:04:20.498Z,3.92
2023-02-22T13:07:28.022Z,4.30
2023-02-22T13:11:04.450Z,3.28
2023-02-22T13:13:55.087Z,3.53
2023-02-22T13:16:39.521Z,4.13
2023-02-22T13:19:43.233Z,3.80
2023-02-22T13:23:30.088Z,5.18
2023-02-22T13:26:24.683Z,3.40
2023-02-22T13:29:28.776Z,3.17
2023-02-22T13:33:08.064Z,4.10
2023-02-22T13:36:07.496Z,3.10
2023-02-22T13:39:05.532Z,3.43
2023-02-22T13:41:56.260Z,4.05
2023-02-22T13:45:44.430Z,3.67
2023-02-22T13:49:17.408Z,3.20
2023-02-22T13:51:58.905Z,3.38
2023-02-22T13:55:02.762Z,3.00
2023-02-22T13:57:48.696Z,3.20
2023-02-22T14:00:23.906Z,2.92
2023-02-22T14:03:41.214Z,2.83
2023-02-22T14:06:41.742Z,3.17
2023-02-22T14:09:56.235Z,2.67
2023-02-22T14:12:34.603Z,3.10
2023-02-22T14:15:26.745Z,3.65
2023-02-22T14:18:05.150Z,3.05
2023-02-22T14:20:38.537Z,3.05
2023-02-22T14:23:34.433Z,3.70
2023-02-22T14:26:31.104Z,3.80
2023-02-22T14:29:10.218Z,2.83
2023-02-22T14:31:43.510Z,3.63
2023-02-22T14:34:49.617Z,3.70
2023-02-22T14:37:39.291Z,3.03
2023-02-22T14:40:36.242Z,2.72
2023-02-22T14:43:22.760Z,3.13
2023-02-22T14:45:58.704Z,2.90
2023-02-22T14:48:42.797Z,3.45
2023-02-22T14:51:29.285Z,4.25
2023-02-22T14:54:29.162Z,3.40
2023-02-22T14:57:53.750Z,2.92
2023-02-22T15:00:38.282Z,2.80
2023-02-22T15:03:37.470Z,3.47
2023-02-22T15:06:22.263Z,3.33
2023-02-22T15:09:36.625Z,3.03
2023-02-22T15:12:10.734Z,5.32
2023-02-22T15:14:44.678Z,5.78
2023-02-22T15:17:24.981Z,3.60
2023-02-22T15:19:55.322Z,3.65
2023-02-22T15:22:36.870Z,3.40
2023-02-22T15:25:12.250Z,3.35
2023-02-22T15:27:47.888Z,3.40
2023-02-22T15:30:26.869Z,3.75
2023-02-22T15:33:04.485Z,3.65
2023-02-22T15:35:34.104Z,3.95
2023-02-22T15:38:26.524Z,4.25
2023-02-22T15:41:03.478Z,3.38
2023-02-22T15:43:32.798Z,3.40
2023-02-22T15:46:11.279Z,3.22
2023-02-22T15:48:41.659Z,3.70
2023-02-22T15:51:17.249Z,3.08
2023-02-22T15:53:51.517Z,2.85
2023-02-22T15:56:31.567Z,3.92
2023-02-22T15:59:20.512Z,3.50
2023-02-22T16:01:53.425Z,4.03
2023-02-22T16:04:31.049Z,4.22
2023-02-22T16:07:17.241Z,3.65
2023-02-22T16:09:52.203Z,3.17
2023-02-22T16:12:22.373Z,4.13
2023-02-22T16:14:52.654Z,3.55
2023-02-22T16:17:37.643Z,3.53
2023-02-22T16:20:14.369Z,3.20
2023-02-22T16:22:51.543Z,3.28
2023-02-22T16:25:18.607Z,3.72
2023-02-22T16:28:27.503Z,4.40
2023-02-22T16:30:58.785Z,4.10
2023-02-22T16:33:34.067Z,3.13
2023-02-22T16:36:08.285Z,3.72
2023-02-22T16:38:39.669Z,3.95
2023-02-22T16:41:09.609Z,3.25
2023-02-22T16:43:40.103Z,3.53
2023-02-22T16:46:09.972Z,4.03
2023-02-22T16:48:46.066Z,3.50
2023-02-22T16:51:32.935Z,4.50
2023-02-22T16:54:03.192Z,4.60
2023-02-22T16:56:31.225Z,4.18
2023-02-22T16:59:12.422Z,4.10
2023-02-22T17:01:40.532Z,4.03
2023-02-22T17:04:20.016Z,4.18
2023-02-22T17:06:50.855Z,4.13
2023-02-22T17:09:20.948Z,4.35
2023-02-22T17:11:54.225Z,4.15
2023-02-22T17:14:34.483Z,4.18
2023-02-22T17:17:04.509Z,4.38
2023-02-22T17:19:33.642Z,4.38
2023-02-22T17:22:06.115Z,3.65
2023-02-22T17:24:34.420Z,5.32
2023-02-22T17:27:04.322Z,5.70
2023-02-22T17:29:34.134Z,4.60
2023-02-22T17:32:04.974Z,5.70
2023-02-22T17:34:34.760Z,5.68
2023-02-22T17:37:05.001Z,3.97
2023-02-22T17:39:35.066Z,4.63
2023-02-22T17:42:06.224Z,4.05
2023-02-22T17:44:36.346Z,4.47
2023-02-22T17:47:06.288Z,4.28
2023-02-22T17:49:36.318Z,5.07
2023-02-22T17:52:06.422Z,3.65
2023-02-22T17:54:34.647Z,4.38
2023-02-22T17:57:03.426Z,4.07
2023-02-22T17:59:31.708Z,4.70
2023-02-22T18:02:01.145Z,4.85
2023-02-22T18:04:28.275Z,4.40
2023-02-22T18:06:56.834Z,5.20
2023-02-22T18:09:25.277Z,6.13
2023-02-22T18:11:53.634Z,5.18
2023-02-22T18:14:22.043Z,4.97
2023-02-22T18:16:50.486Z,6.93
2023-02-22T18:19:20.495Z,5.50
2023-02-22T18:21:50.395Z,4.75
2023-02-22T18:24:18.913Z,5.30
2023-02-22T18:26:47.616Z,6.07
2023-02-22T18:29:15.766Z,6.18
2023-02-22T18:31:45.570Z,5.63
2023-02-22T18:34:16.010Z,5.90
2023-02-22T18:36:46.168Z,5.10
2023-02-22T18:39:15.833Z,6.10
2023-02-22T18:41:48.658Z,5.57
2023-02-22T18:44:18.738Z,5.20
2023-02-22T18:46:48.737Z,6.10
2023-02-22T18:49:18.614Z,5.63
2023-02-22T18:51:48.857Z,5.20
2023-02-22T18:54:19.886Z,5.68
2023-02-22T18:56:49.923Z,4.13
2023-02-22T18:59:19.620Z,4.78
2023-02-22T19:01:49.627Z,4.20
2023-02-22T19:04:19.795Z,4.55
2023-02-22T19:06:49.943Z,4.43
2023-02-22T19:09:17.950Z,4.53
2023-02-22T19:11:48.408Z,4.30
2023-02-22T19:14:19.566Z,4.72
2023-02-22T19:16:52.541Z,5.80
2023-02-22T19:19:24.153Z,5.05
2023-02-22T19:21:56.388Z,4.78
2023-02-22T19:24:24.018Z,5.32
2023-02-22T19:26:51.810Z,5.47
2023-02-22T19:29:23.776Z,5.68
2023-02-22T19:31:53.909Z,5.45
2023-02-22T19:34:24.861Z,6.22
2023-02-22T19:36:56.016Z,5.68
2023-02-22T19:39:27.023Z,6.25
2023-02-22T19:41:57.058Z,6.70
2023-02-22T19:44:28.445Z,5.57
2023-02-22T19:46:57.988Z,6.82
2023-02-22T19:49:29.177Z,4.75
2023-02-22T19:51:58.629Z,4.00
2023-02-22T19:54:29.189Z,4.47
2023-02-22T19:56:58.877Z,4.88
2023-02-22T19:59:29.414Z,3.83
2023-02-22T20:01:59.239Z,4.20
2023-02-22T20:04:30.861Z,4.55
2023-02-22T20:07:00.156Z,4.65
2023-02-22T20:09:36.559Z,5.85
2023-02-22T20:12:13.213Z,11.05
2023-02-22T20:14:42.253Z,9.65
2023-02-22T20:17:12.998Z,7.57
2023-02-22T20:19:43.139Z,6.75
2023-02-22T20:22:12.818Z,6.35
2023-02-22T20:24:42.641Z,7.10
2023-02-22T20:27:12.982Z,6.88
2023-02-22T20:29:42.045Z,7.07
2023-02-22T20:32:15.097Z,6.93
2023-02-22T20:34:48.071Z,7.05
2023-02-22T20:37:18.358Z,6.43
2023-02-22T20:39:48.278Z,6.53
2023-02-22T20:42:18.171Z,7.00
2023-02-22T20:44:50.544Z,8.02
2023-02-22T20:47:21.116Z,9.70
2023-02-22T20:49:50.657Z,8.68
2023-02-22T20:52:20.421Z,9.23
2023-02-22T20:54:50.267Z,9.07
2023-02-22T20:57:20.060Z,9.23
2023-02-22T20:59:49.887Z,8.35
2023-02-22T21:02:19.611Z,8.63
2023-02-22T21:04:49.412Z,7.13
2023-02-22T21:07:22.441Z,8.10
2023-02-22T21:09:52.609Z,7.20
2023-02-22T21:12:21.759Z,7.68
2023-02-22T21:14:51.626Z,7.43
2023-02-22T21:17:28.713Z,7.72
2023-02-22T21:19:59.186Z,8.20
2023-02-22T21:22:29.575Z,8.55
2023-02-22T21:24:58.888Z,7.63
2023-02-22T21:27:28.547Z,8.68
2023-02-22T21:29:58.736Z,7.43
2023-02-22T21:32:28.599Z,7.88
2023-02-22T21:34:58.383Z,8.57
2023-02-22T21:37:28.832Z,9.00
2023-02-22T21:39:59.111Z,10.50
2023-02-22T21:42:28.442Z,9.77
2023-02-22T21:44:58.180Z,8.57
2023-02-22T21:47:31.155Z,9.15
2023-02-22T21:50:01.805Z,9.35
2023-02-22T21:52:31.780Z,9.95
2023-02-22T21:55:01.496Z,9.25
2023-02-22T21:57:31.390Z,10.90
2023-02-22T22:00:02.313Z,9.65
2023-02-22T22:02:32.314Z,9.45
2023-02-22T22:05:02.343Z,10.38
2023-02-22T22:07:32.397Z,10.63
2023-02-22T22:10:03.741Z,10.48
2023-02-22T22:12:39.179Z,9.45
2023-02-22T22:15:10.439Z,9.80
2023-02-22T22:17:40.576Z,11.23
2023-02-22T22:20:15.265Z,11.23
2023-02-22T22:22:46.461Z,10.77
2023-02-22T22:25:19.515Z,9.65
2023-02-22T22:27:49.531Z,11.93
2023-02-22T22:30:19.348Z,10.23
2023-02-22T22:32:49.164Z,11.07
2023-02-22T22:35:19.006Z,12.15
2023-02-22T22:37:51.296Z,11.15
2023-02-22T22:40:21.504Z,11.57
2023-02-22T22:42:51.177Z,13.27
2023-02-22T22:45:21.191Z,12.82
2023-02-22T22:47:52.276Z,12.43
2023-02-22T22:50:26.484Z,12.27
2023-02-22T22:52:56.874Z,12.82
2023-02-22T22:55:26.855Z,11.23
2023-02-22T22:57:56.842Z,13.10
2023-02-22T23:00:30.737Z,13.20
2023-02-22T23:03:01.376Z,13.45
2023-02-22T23:05:42.345Z,13.05
2023-02-22T23:08:13.008Z,15.90
2023-02-22T23:10:43.128Z,13.85
2023-02-22T23:13:15.721Z,15.75
2023-02-22T23:15:47.807Z,15.52
2023-02-22T23:18:20.868Z,14.90
2023-02-22T23:20:55.265Z,13.52
2023-02-22T23:23:27.766Z,14.27
2023-02-22T23:26:20.479Z,15.05
2023-02-22T23:28:52.537Z,14.13
2023-02-22T23:31:24.252Z,16.67
2023-02-22T23:33:55.807Z,15.10
2023-02-22T23:36:27.654Z,15.30
2023-02-22T23:38:57.918Z,15.27
2023-02-22T23:41:28.720Z,15.82
2023-02-22T23:44:00.118Z,15.75
2023-02-22T23:46:32.913Z,16.35
2023-02-22T23:49:05.420Z,15.85
2023-02-22T23:51:44.598Z,16.90
2023-02-22T23:54:20.053Z,17.67
2023-02-22T23:57:02.473Z,17.02
2023-02-22T23:59:33.841Z,19.42
